Time;durP1;ratioP1;P1;durP2;ratioP2;P2;SDS_P1;SDS_P2;PMS_P1;PMS_P2;Temp;Humidity;BMP_temperature;BMP_pressure;BME280_temperature;BME280_humidity;BME280_pressure;Samples;Min_cycle;Max_cycle;Signal;HPM_P1;HPM_P2
2023/01/13 00:01:29;;;;;;;;;;;;;;;2.13;100.00;100825.47;5568837;32;34265;-74
2023/01/13 00:04:36;;;;;;;;;;;;;;;2.10;100.00;100819.59;5554340;32;34168;-73
2023/01/13 00:07:45;;;;;;;;;;;;;;;1.99;100.00;100811.62;5542637;32;34633;-73
2023/01/13 00:10:56;;;;;;;;;;;;;;;1.94;100.00;100816.31;5542016;32;34290;-73
2023/01/13 00:14:03;;;;;;;;;;;;;;;1.94;100.00;100816.31;5568692;32;34334;-73
2023/01/13 00:17:11;;;;;;;;;;;;;;;1.95;100.00;100816.25;5568431;32;34275;-74
2023/01/13 00:20:19;;;;;;;;;;;;;;;1.86;100.00;100810.78;5555138;32;34546;-74
2023/01/13 00:23:27;;;;;;;;;;;;;;;1.84;100.00;100803.03;5564917;32;34369;-73
2023/01/13 00:26:34;;;;;;;;;;;;;;;1.78;100.00;100797.38;5554316;32;33060;-74
2023/01/13 00:29:43;;;;;;;;;;;;;;;1.77;100.00;100801.78;5554237;32;33309;-73
2023/01/13 00:32:50;;;;;;;;;;;;;;;1.75;100.00;100796.63;5568459;32;34388;-74
2023/01/13 00:36:00;;;;;;;;;;;;;;;1.71;100.00;100802.16;5543431;32;34257;-74
2023/01/13 00:39:09;;;;;;;;;;;;;;;1.65;100.00;100802.56;5568514;32;34147;-73
2023/01/13 00:45:43;;;;;;;;;;;;;;;1.62;100.00;100811.47;5568437;32;34383;-73
2023/01/13 00:48:50;;;;;;;;;;;;;;;1.56;100.00;100804.00;5568474;32;34682;-73
2023/01/13 00:51:57;;;;;;;;;;;;;;;1.58;100.00;100806.53;5568361;32;34971;-74
2023/01/13 00:55:05;;;;;;;;;;;;;;;1.60;100.00;100812.47;5554279;32;34998;-75
2023/01/13 00:58:14;;;;;;;;;;;;;;;1.57;100.00;100797.00;5553495;32;33277;-73
2023/01/13 01:01:22;;;;;;;;;;;;;;;1.52;100.00;100804.31;5568372;32;34628;-73
2023/01/13 01:04:29;;;;;;;;;;;;;;;1.44;100.00;100804.81;5541832;32;34666;-74
2023/01/13 01:07:38;;;;;;;;;;;;;;;1.36;100.00;100796.63;5555186;32;34625;-74
2023/01/13 01:10:47;;;;;;;;;;;;;;;1.28;100.00;100802.34;5542185;32;35567;-73
2023/01/13 01:13:56;;;;;;;;;;;;;;;1.24;100.00;100792.19;5540688;32;33997;-74
2023/01/13 01:17:03;;;;;;;;;;;;;;;1.18;100.00;100798.66;5528556;32;33525;-73
2023/01/13 01:20:09;;;;;;;;;;;;;;;1.16;100.00;100794.47;5516008;32;33341;-73
2023/01/13 01:23:17;;;;;;;;;;;;;;;1.17;100.00;100796.13;5528468;32;34940;-74
2023/01/13 01:26:27;;;;;;;;;;;;;;;1.16;100.00;100784.81;5528490;32;34243;-73
2023/01/13 01:29:34;;;;;;;;;;;;;;;1.16;100.00;100786.63;5528124;32;34401;-73
2023/01/13 01:32:47;;;;;;;;;;;;;;;1.14;100.00;100781.50;5529162;32;34955;-73
2023/01/13 01:35:55;;;;;;;;;;;;;;;1.14;100.00;100786.72;5529230;32;34519;-73
2023/01/13 01:39:06;;;;;;;;;;;;;;;1.11;100.00;100779.09;5516297;32;33590;-74
2023/01/13 01:45:43;;;;;;;;;;;;;;;1.08;100.00;100775.81;5529070;32;34878;-73
2023/01/13 01:48:51;;;;;;;;;;;;;;;1.12;100.00;100767.66;5515418;32;34148;-73
2023/01/13 01:52:00;;;;;;;;;;;;;;;1.04;100.00;100769.09;5528257;32;34127;-73
2023/01/13 01:55:11;;;;;;;;;;;;;;;1.04;100.00;100766.50;5539669;32;35167;-74
2023/01/13 01:58:20;;;;;;;;;;;;;;;1.02;100.00;100773.56;5528195;32;33813;-73
2023/01/13 02:01:29;;;;;;;;;;;;;;;1.02;100.00;100766.59;5528555;32;33971;-73
2023/01/13 02:04:39;;;;;;;;;;;;;;;0.99;100.00;100760.72;5528877;32;33447;-73
2023/01/13 02:07:51;;;;;;;;;;;;;;;1.02;100.00;100763.13;5528115;32;34643;-73
2023/01/13 02:11:01;;;;;;;;;;;;;;;1.01;100.00;100758.87;5514931;32;33053;-73
2023/01/13 02:14:09;;;;;;;;;;;;;;;1.01;100.00;100751.87;5535522;32;34157;-72
2023/01/13 02:17:20;;;;;;;;;;;;;;;1.03;100.00;100755.19;5528702;32;34072;-72
2023/01/13 02:20:43;;;;;;;;;;;;;;;1.05;100.00;100752.50;5528816;32;34333;-72
2023/01/13 02:27:59;;;;;;;;;;;;;;;1.04;100.00;100749.03;5528884;32;34522;-72
2023/01/13 02:35:00;;;;;;;;;;;;;;;1.13;100.00;100745.84;5527532;32;33799;-72
2023/01/13 02:38:11;;;;;;;;;;;;;;;1.16;100.00;100729.94;5527759;32;34360;-72
2023/01/13 02:44:54;;;;;;;;;;;;;;;1.28;100.00;100738.78;5527266;32;33826;-72
2023/01/13 02:48:04;;;;;;;;;;;;;;;1.22;100.00;100731.34;5528384;32;34178;-73
2023/01/13 02:51:14;;;;;;;;;;;;;;;1.20;100.00;100733.22;5528347;32;34194;-73
2023/01/13 02:54:24;;;;;;;;;;;;;;;1.19;100.00;100731.53;5527487;32;34779;-72
2023/01/13 02:57:32;;;;;;;;;;;;;;;1.22;100.00;100734.78;5528497;32;34375;-72
2023/01/13 03:00:39;;;;;;;;;;;;;;;1.23;100.00;100726.03;5527261;32;34858;-73
2023/01/13 03:03:48;;;;;;;;;;;;;;;1.27;100.00;100721.41;5528103;32;34854;-72
2023/01/13 03:07:01;;;;;;;;;;;;;;;1.34;100.00;100717.47;5529711;32;34091;-72
2023/01/13 03:10:26;;;;;;;;;;;;;;;1.32;100.00;100724.56;5529574;32;34461;-72
2023/01/13 03:13:44;;;;;;;;;;;;;;;1.37;100.00;100716.44;5540848;32;34583;-72
2023/01/13 03:16:51;;;;;;;;;;;;;;;1.38;100.00;100720.72;5549250;32;34317;-72
2023/01/13 03:19:59;;;;;;;;;;;;;;;1.36;100.00;100715.59;5548358;32;33336;-72
2023/01/13 03:23:12;;;;;;;;;;;;;;;1.36;100.00;100710.34;5549654;32;34083;-72
2023/01/13 03:26:20;;;;;;;;;;;;;;;1.33;100.00;100714.97;5547870;32;34176;-72
2023/01/13 03:29:27;;;;;;;;;;;;;;;1.43;100.00;100716.03;5548597;32;34620;-71
2023/01/13 03:32:35;;;;;;;;;;;;;;;1.34;100.00;100714.87;5548667;32;34911;-72
2023/01/13 03:35:44;;;;;;;;;;;;;;;1.32;100.00;100708.88;5549673;32;33850;-72
2023/01/13 03:38:53;;;;;;;;;;;;;;;1.32;100.00;100711.50;5548499;32;34856;-73
2023/01/13 03:42:04;;;;;;;;;;;;;;;1.31;100.00;100702.81;5549472;32;34180;-72
2023/01/13 03:45:16;;;;;;;;;;;;;;;1.39;100.00;100696.25;5536248;32;34576;-72
2023/01/13 03:48:26;;;;;;;;;;;;;;;1.38;100.00;100703.25;5549414;32;34216;-73
2023/01/13 03:51:34;;;;;;;;;;;;;;;1.40;100.00;100690.09;5548720;32;34414;-72
2023/01/13 03:54:46;;;;;;;;;;;;;;;1.42;100.00;100694.28;5548029;32;34973;-72
2023/01/13 03:57:57;;;;;;;;;;;;;;;1.44;100.00;100700.25;5549336;32;34387;-72
2023/01/13 04:01:09;;;;;;;;;;;;;;;1.51;100.00;100693.66;5548563;32;34695;-73
2023/01/13 04:04:36;;;;;;;;;;;;;;;1.50;100.00;100694.59;5548276;32;34433;-72
2023/01/13 04:07:51;;;;;;;;;;;;;;;1.51;100.00;100701.50;5548501;32;33970;-73
2023/01/13 04:11:17;;;;;;;;;;;;;;;1.49;100.00;100706.00;5549034;32;34929;-72
2023/01/13 04:14:24;;;;;;;;;;;;;;;1.52;100.00;100705.81;5548213;32;34165;-73
2023/01/13 04:17:34;;;;;;;;;;;;;;;1.64;100.00;100702.38;5548044;32;34037;-73
2023/01/13 04:20:47;;;;;;;;;;;;;;;1.60;100.00;100708.72;5548452;32;33641;-72
2023/01/13 04:23:54;;;;;;;;;;;;;;;1.51;100.00;100700.66;5549147;32;33940;-72
2023/01/13 04:27:05;;;;;;;;;;;;;;;1.53;100.00;100706.62;5549103;32;34170;-73
2023/01/13 04:30:11;;;;;;;;;;;;;;;1.51;100.00;100706.72;5548486;32;34508;-73
2023/01/13 04:33:22;;;;;;;;;;;;;;;1.51;100.00;100705.91;5548245;32;34324;-73
2023/01/13 04:36:32;;;;;;;;;;;;;;;1.51;100.00;100717.19;5548123;32;34326;-72
2023/01/13 04:39:42;;;;;;;;;;;;;;;1.50;100.00;100714.69;5548051;32;34938;-72
2023/01/13 04:42:51;;;;;;;;;;;;;;;1.49;100.00;100716.47;5548048;32;34303;-73
2023/01/13 04:46:02;;;;;;;;;;;;;;;1.49;100.00;100713.03;5535460;32;34084;-73
2023/01/13 04:49:09;;;;;;;;;;;;;;;1.46;100.00;100718.44;5548078;32;34309;-72
2023/01/13 04:52:16;;;;;;;;;;;;;;;1.44;100.00;100715.94;5548853;32;34676;-72
2023/01/13 04:55:23;;;;;;;;;;;;;;;1.43;100.00;100710.81;5548985;32;34154;-73
2023/01/13 04:58:31;;;;;;;;;;;;;;;1.48;100.00;100709.56;5548846;32;34022;-73
2023/01/13 05:01:42;;;;;;;;;;;;;;;1.43;100.00;100713.41;5547258;32;32505;-72
2023/01/13 05:04:49;;;;;;;;;;;;;;;1.44;100.00;100710.72;5548765;32;34712;-72
2023/01/13 05:07:56;;;;;;;;;;;;;;;1.44;100.00;100708.09;5547416;32;34572;-73
2023/01/13 05:16:58;;;;;;;;;;;;;;;1.39;100.00;100719.78;5528209;32;34779;-73
2023/01/13 05:17:59;;;;;;;;;;;;;;;1.34;100.00;100709.62;5567545;32;34940;-73
2023/01/13 05:25:20;;;;;;;;;;;;;;;1.31;100.00;100723.72;5554457;32;34937;-73
2023/01/13 05:28:01;;;;;;;;;;;;;;;1.26;100.00;100730.19;5567009;32;34188;-72
2023/01/13 05:31:08;;;;;;;;;;;;;;;1.32;100.00;100724.56;5567991;32;34330;-72
2023/01/13 05:34:14;;;;;;;;;;;;;;;1.26;100.00;100730.19;5567727;32;34299;-73
2023/01/13 05:37:21;;;;;;;;;;;;;;;1.20;100.00;100728.00;5567602;32;34101;-73
2023/01/13 05:43:52;;;;;;;;;;;;;;;1.19;100.00;100742.84;5566905;32;33091;-73
2023/01/13 05:46:58;;;;;;;;;;;;;;;1.11;100.00;100734.66;5566096;32;34581;-73
2023/01/13 05:50:06;;;;;;;;;;;;;;;1.00;100.00;100724.06;5552754;32;33705;-73
2023/01/13 05:53:13;;;;;;;;;;;;;;;0.95;100.00;100727.91;5554281;32;33937;-73
2023/01/13 05:56:18;;;;;;;;;;;;;;;0.94;100.00;100724.44;5553503;32;33016;-73
2023/01/13 05:59:26;;;;;;;;;;;;;;;1.00;100.00;100721.44;5567584;32;34757;-73
2023/01/13 06:02:32;;;;;;;;;;;;;;;1.12;100.00;100723.25;5554362;32;35248;-73
2023/01/13 06:05:38;;;;;;;;;;;;;;;1.24;100.00;100722.47;5553880;32;34551;-72
2023/01/13 06:08:45;;;;;;;;;;;;;;;1.25;100.00;100725.94;5567552;32;33141;-73
2023/01/13 06:11:52;;;;;;;;;;;;;;;1.26;100.00;100733.66;5540443;32;33196;-73
2023/01/13 06:14:57;;;;;;;;;;;;;;;1.26;100.00;100728.41;5566604;32;34951;-73
2023/01/13 06:18:05;;;;;;;;;;;;;;;1.24;100.00;100725.09;5557266;32;34961;-73
2023/01/13 06:21:10;;;;;;;;;;;;;;;1.22;100.00;100734.78;5553555;32;34344;-74
2023/01/13 06:24:16;;;;;;;;;;;;;;;1.27;100.00;100731.87;5567184;32;34756;-72
2023/01/13 06:27:21;;;;;;;;;;;;;;;1.25;100.00;100733.78;5553569;32;35017;-72
2023/01/13 06:30:28;;;;;;;;;;;;;;;1.26;100.00;100740.66;5539437;32;33172;-73
2023/01/13 06:33:37;;;;;;;;;;;;;;;1.24;100.00;100743.38;5552796;32;33572;-74
2023/01/13 06:36:44;;;;;;;;;;;;;;;1.31;100.00;100733.34;5567485;32;34644;-74
2023/01/13 06:39:49;;;;;;;;;;;;;;;1.33;100.00;100741.94;5562977;32;33976;-73
2023/01/13 06:43:14;;;;;;;;;;;;;;;1.30;100.00;100732.53;5565204;32;34419;-72
2023/01/13 06:46:20;;;;;;;;;;;;;;;1.32;100.00;100742.88;5563839;32;33366;-73
2023/01/13 06:49:24;;;;;;;;;;;;;;;1.31;100.00;100746.41;5566409;32;34587;-73
2023/01/13 06:52:29;;;;;;;;;;;;;;;1.33;100.00;100755.00;5552454;32;32907;-74
2023/01/13 06:55:33;;;;;;;;;;;;;;;1.46;100.00;100752.41;5552237;32;34211;-72
2023/01/13 06:58:36;;;;;;;;;;;;;;;1.49;100.00;100754.84;5551718;32;34254;-73
2023/01/13 07:01:42;;;;;;;;;;;;;;;1.54;100.00;100758.84;5554706;32;34541;-73
2023/01/13 07:04:47;;;;;;;;;;;;;;;1.58;100.00;100759.47;5565971;32;33972;-72
2023/01/13 07:07:51;;;;;;;;;;;;;;;1.63;100.00;100765.22;5564758;32;33993;-72
2023/01/13 07:10:57;;;;;;;;;;;;;;;1.67;100.00;100756.25;5545322;32;34470;-73
2023/01/13 07:17:25;;;;;;;;;;;;;;;1.78;100.00;100766.84;5566018;32;34227;-72
2023/01/13 07:20:33;;;;;;;;;;;;;;;1.78;100.00;100766.84;5552611;32;34165;-72
2023/01/13 07:23:39;;;;;;;;;;;;;;;1.83;100.00;100764.75;5565364;32;34294;-73
2023/01/13 07:26:45;;;;;;;;;;;;;;;1.95;100.00;100756.06;5551625;31;34809;-72
2023/01/13 07:29:49;;;;;;;;;;;;;;;1.99;100.00;100754.91;5565010;32;34891;-72
2023/01/13 07:32:54;;;;;;;;;;;;;;;2.01;100.00;100755.66;5552142;32;33425;-72
2023/01/13 07:35:59;;;;;;;;;;;;;;;2.19;100.00;100761.41;5552072;32;32551;-72
2023/01/13 07:39:04;;;;;;;;;;;;;;;2.37;100.00;100767.16;5565995;32;34116;-72
2023/01/13 07:45:31;;;;;;;;;;;;;;;2.29;100.00;100759.84;5564922;32;34355;-73
2023/01/13 07:48:35;;;;;;;;;;;;;;;2.47;100.00;100762.97;5552482;32;34984;-73
2023/01/13 07:51:39;;;;;;;;;;;;;;;2.68;100.00;100765.84;5565941;32;34123;-72
2023/01/13 07:54:44;;;;;;;;;;;;;;;2.51;100.00;100767.88;5567846;32;34083;-72
2023/01/13 07:57:49;;;;;;;;;;;;;;;2.52;100.00;100776.56;5567998;32;34318;-73
2023/01/13 08:00:53;;;;;;;;;;;;;;;2.52;100.00;100766.09;5552815;32;33862;-71
2023/01/13 08:03:57;;;;;;;;;;;;;;;2.48;100.00;100775.94;5567635;32;34627;-72
2023/01/13 08:07:01;;;;;;;;;;;;;;;2.52;100.00;100773.94;5554168;32;35038;-71
2023/01/13 08:10:06;;;;;;;;;;;;;;;2.68;100.00;100786.81;5569223;31;34300;-72
2023/01/13 08:13:18;;;;;;;;;;;;;;;2.79;100.00;100794.75;5566916;32;34282;-72
2023/01/13 08:16:23;;;;;;;;;;;;;;;2.96;100.00;100794.38;5567327;32;35069;-74
2023/01/13 08:19:26;;;;;;;;;;;;;;;2.89;100.00;100795.78;5541767;32;33393;-72
2023/01/13 08:22:32;;;;;;;;;;;;;;;2.89;100.00;100798.41;5568432;32;33991;-75
2023/01/13 08:25:36;;;;;;;;;;;;;;;2.92;100.00;100799.03;5553726;32;33572;-74
2023/01/13 08:28:41;;;;;;;;;;;;;;;2.85;100.00;100797.78;5568285;32;34307;-74
2023/01/13 08:31:45;;;;;;;;;;;;;;;2.77;100.00;100801.88;5568402;32;34367;-74
2023/01/13 08:34:49;;;;;;;;;;;;;;;2.81;100.00;100801.56;5553878;32;34828;-74
2023/01/13 08:37:52;;;;;;;;;;;;;;;2.82;100.00;100808.47;5554211;32;34681;-74
2023/01/13 08:40:56;;;;;;;;;;;;;;;3.14;100.00;100810.59;5568188;32;34127;-74
2023/01/13 08:44:02;;;;;;;;;;;;;;;3.10;100.00;100802.09;5568031;32;34368;-74
2023/01/13 08:47:06;;;;;;;;;;;;;;;2.91;100.00;100812.22;5543075;31;34452;-74
2023/01/13 08:50:11;;;;;;;;;;;;;;;2.85;100.00;100807.44;5554624;32;34764;-72
2023/01/13 08:53:18;;;;;;;;;;;;;;;2.97;100.00;100809.19;5554695;32;34937;-73
2023/01/13 08:56:21;;;;;;;;;;;;;;;2.93;100.00;100810.34;5554049;32;34321;-74
2023/01/13 08:59:25;;;;;;;;;;;;;;;3.05;100.00;100819.94;5567861;32;33736;-73
2023/01/13 09:02:29;;;;;;;;;;;;;;;3.07;100.00;100828.53;5554294;32;34133;-74
2023/01/13 09:05:34;;;;;;;;;;;;;;;2.90;100.00;100821.06;5553866;32;32887;-72
2023/01/13 09:08:38;;;;;;;;;;;;;;;2.79;100.00;100816.56;5568016;32;34010;-72
2023/01/13 09:15:05;;;;;;;;;;;;;;;2.85;100.00;100812.69;5567539;32;35000;-73
2023/01/13 09:18:12;;;;;;;;;;;;;;;2.59;100.00;100817.94;5567076;32;34667;-73
2023/01/13 09:21:18;;;;;;;;;;;;;;;2.73;100.00;100811.75;5553367;32;34150;-74
2023/01/13 09:24:25;;;;;;;;;;;;;;;2.61;100.00;100810.00;5565416;32;34945;-73
2023/01/13 09:27:30;;;;;;;;;;;;;;;2.69;100.00;100807.66;5553687;32;34813;-74
2023/01/13 09:30:36;;;;;;;;;;;;;;;2.60;100.00;100808.31;5565993;32;34325;-72
2023/01/13 09:37:04;;;;;;;;;;;;;;;2.47;100.00;100813.53;5566824;32;34301;-72
2023/01/13 09:40:18;;;;;;;;;;;;;;;2.86;100.00;100811.72;5566148;32;34716;-72
2023/01/13 09:46:53;;;;;;;;;;;;;;;3.04;100.00;100800.78;5554561;32;34022;-71
2023/01/13 09:50:02;;;;;;;;;;;;;;;2.95;100.00;100805.84;5557623;31;34264;-75
2023/01/13 09:53:11;;;;;;;;;;;;;;;3.04;100.00;100810.44;5566256;32;34417;-73
2023/01/13 09:56:16;;;;;;;;;;;;;;;2.88;100.00;100805.44;5567025;31;34695;-76
2023/01/13 09:59:25;;;;;;;;;;;;;;;2.52;100.00;100803.59;5543846;32;34569;-76
2023/01/13 10:02:38;;;;;;;;;;;;;;;2.58;100.00;100797.09;5555715;32;34913;-75
2023/01/13 10:05:49;;;;;;;;;;;;;;;2.49;100.00;100808.22;5567024;32;34283;-76
2023/01/13 10:08:52;;;;;;;;;;;;;;;2.45;100.00;100799.72;5564068;31;34447;-77
2023/01/13 10:15:24;;;;;;;;;;;;;;;2.95;100.00;100803.22;5566069;32;33791;-77
2023/01/13 10:18:38;;;;;;;;;;;;;;;3.01;100.00;100794.91;5566717;32;35242;-76
2023/01/13 10:22:09;;;;;;;;;;;;;;;2.89;100.00;100798.41;5566078;32;34834;-76
2023/01/13 10:25:23;;;;;;;;;;;;;;;2.58;100.00;100795.31;5552582;32;35504;-77
2023/01/13 10:28:28;;;;;;;;;;;;;;;2.48;100.00;100791.66;5566704;32;35029;-75
2023/01/13 10:31:32;;;;;;;;;;;;;;;2.51;100.00;100796.69;5553311;32;33782;-75
2023/01/13 10:34:59;;;;;;;;;;;;;;;2.80;100.00;100797.28;5553494;32;33700;-77
2023/01/13 10:38:14;;;;;;;;;;;;;;;2.69;100.00;100797.19;5553310;32;34854;-77
2023/01/13 10:41:21;;;;;;;;;;;;;;;2.89;100.00;100790.53;5567327;32;33842;-77
2023/01/13 10:44:28;;;;;;;;;;;;;;;2.97;100.00;100783.81;5552802;32;33123;-76
2023/01/13 10:47:32;;;;;;;;;;;;;;;3.35;100.00;100783.66;5554423;32;33308;-75
2023/01/13 10:50:39;;;;;;;;;;;;;;;3.37;100.00;100775.69;5554516;32;32771;-75
2023/01/13 10:53:49;;;;;;;;;;;;;;;3.38;100.00;100775.59;5553062;32;34580;-75
2023/01/13 10:57:14;;;;;;;;;;;;;;;2.85;100.00;100766.34;5540780;32;34010;-76
2023/01/13 11:00:29;;;;;;;;;;;;;;;2.47;100.00;100763.78;5567090;32;34280;-76
2023/01/13 11:03:41;;;;;;;;;;;;;;;2.52;100.00;100753.81;5566890;32;34107;-75
2023/01/13 11:06:46;;;;;;;;;;;;;;;2.71;100.00;100742.88;5568249;31;33270;-76
2023/01/13 11:10:09;;;;;;;;;;;;;;;2.97;100.00;100747.12;5572396;31;34066;-75
2023/01/13 11:13:28;;;;;;;;;;;;;;;3.15;100.00;100741.50;5565847;32;34028;-76
2023/01/13 11:16:33;;;;;;;;;;;;;;;3.10;100.00;100751.50;5566891;32;34300;-76
2023/01/13 11:19:41;;;;;;;;;;;;;;;3.13;100.00;100732.91;5552242;32;34247;-76
2023/01/13 11:22:47;;;;;;;;;;;;;;;3.20;100.00;100736.75;5553496;32;34867;-76
2023/01/13 11:25:55;;;;;;;;;;;;;;;3.01;100.00;100729.38;5566431;32;35097;-76
2023/01/13 11:29:07;;;;;;;;;;;;;;;2.67;100.00;100717.03;5554813;32;34184;-77
2023/01/13 11:32:16;;;;;;;;;;;;;;;2.49;100.00;100716.56;5568324;32;33704;-76
2023/01/13 11:35:21;;;;;;;;;;;;;;;2.51;100.00;100719.91;5568978;32;34714;-76
2023/01/13 11:38:46;;;;;;;;;;;;;;;2.73;100.00;100717.44;5568256;32;34212;-76
2023/01/13 11:42:19;;;;;;;;;;;;;;;2.55;100.00;100726.59;5568612;32;34282;-76
2023/01/13 11:45:34;;;;;;;;;;;;;;;2.61;100.00;100723.56;5568662;32;34139;-74
2023/01/13 11:48:40;;;;;;;;;;;;;;;2.78;100.00;100714.47;5571107;32;34785;-74
2023/01/13 11:52:10;;;;;;;;;;;;;;;2.78;100.00;100704.00;5554636;32;33627;-75
2023/01/13 11:55:26;;;;;;;;;;;;;;;2.68;100.00;100703.81;5547751;32;33922;-74
2023/01/13 11:58:38;;;;;;;;;;;;;;;2.72;100.00;100696.56;5554302;32;34998;-76
2023/01/13 12:01:53;;;;;;;;;;;;;;;2.57;100.00;100672.31;5555874;32;34960;-74
2023/01/13 12:05:03;;;;;;;;;;;;;;;2.72;100.00;100675.62;5568552;32;33754;-75
2023/01/13 12:08:17;;;;;;;;;;;;;;;2.94;100.00;100666.12;5554202;32;34887;-74
2023/01/13 12:11:32;;;;;;;;;;;;;;;2.88;100.00;100660.47;5554038;32;33653;-73
2023/01/13 12:14:45;;;;;;;;;;;;;;;3.00;100.00;100657.78;5554244;32;34661;-72
2023/01/13 12:17:55;;;;;;;;;;;;;;;3.11;100.00;100653.53;5559583;32;32853;-73
2023/01/13 12:21:11;;;;;;;;;;;;;;;2.84;100.00;100648.56;5541510;32;33980;-73
2023/01/13 12:24:15;;;;;;;;;;;;;;;2.86;100.00;100642.22;5541123;32;35105;-73
2023/01/13 12:27:23;;;;;;;;;;;;;;;3.05;100.00;100634.69;5568367;32;34212;-73
2023/01/13 12:30:42;;;;;;;;;;;;;;;3.07;100.00;100637.19;5553366;32;34943;-72
2023/01/13 12:34:04;;;;;;;;;;;;;;;3.06;100.00;100638.16;5567826;32;35355;-73
2023/01/13 12:37:14;;;;;;;;;;;;;;;3.09;100.00;100647.59;5568374;32;34085;-74
2023/01/13 12:40:28;;;;;;;;;;;;;;;2.77;100.00;100647.31;5554657;32;34704;-74
2023/01/13 12:46:56;;;;;;;;;;;;;;;3.00;100.00;100651.72;5568206;32;34010;-73
2023/01/13 12:50:18;;;;;;;;;;;;;;;2.89;100.00;100652.50;5553125;32;34217;-74
2023/01/13 12:53:27;;;;;;;;;;;;;;;2.92;100.00;100654.06;5566985;32;34465;-73
2023/01/13 12:56:37;;;;;;;;;;;;;;;2.94;100.00;100644.31;5555702;32;33920;-74
2023/01/13 12:59:47;;;;;;;;;;;;;;;2.85;100.00;100637.97;5550835;32;34648;-73
2023/01/13 13:03:15;;;;;;;;;;;;;;;2.80;100.00;100640.09;5517163;32;34883;-73
2023/01/13 13:06:28;;;;;;;;;;;;;;;2.95;100.00;100640.75;5524473;32;34803;-73
2023/01/13 13:09:37;;;;;;;;;;;;;;;3.12;100.00;100648.19;5551853;32;36532;-73
2023/01/13 13:16:22;;;;;;;;;;;;;;;3.33;100.00;100659.72;5548605;32;34597;-75
2023/01/13 13:19:29;;;;;;;;;;;;;;;3.33;100.00;100664.94;5567743;32;34068;-74
2023/01/13 13:22:37;;;;;;;;;;;;;;;3.27;100.00;100664.56;5553988;32;33090;-72
2023/01/13 13:25:57;;;;;;;;;;;;;;;3.24;100.00;100665.66;5566710;32;34438;-73
2023/01/13 13:29:08;;;;;;;;;;;;;;;3.21;100.00;100662.38;5553787;32;33090;-73
2023/01/13 13:32:26;;;;;;;;;;;;;;;3.15;100.00;100661.06;5565790;32;33368;-73
2023/01/13 13:35:34;;;;;;;;;;;;;;;3.39;100.00;100659.22;5566073;32;34938;-73
2023/01/13 13:49:33;;;;;;;;;;;;;;;3.77;100.00;100650.25;5565762;32;32972;-73
2023/01/13 13:52:57;;;;;;;;;;;;;;;3.86;100.00;100654.78;5566662;32;34541;-73
2023/01/13 13:56:06;;;;;;;;;;;;;;;3.91;100.00;100665.78;5567184;32;34847;-73
2023/01/13 13:59:10;;;;;;;;;;;;;;;3.99;100.00;100673.03;5567649;32;34158;-73
2023/01/13 14:02:27;;;;;;;;;;;;;;;3.89;100.00;100676.38;5566962;32;34261;-73
2023/01/13 14:05:34;;;;;;;;;;;;;;;3.86;100.00;100681.03;5566279;32;34961;-74
2023/01/13 14:08:38;;;;;;;;;;;;;;;3.84;100.00;100678.53;5566510;32;35118;-73
2023/01/13 14:11:53;;;;;;;;;;;;;;;3.91;100.00;100674.50;5566436;32;34293;-73
2023/01/13 14:15:00;;;;;;;;;;;;;;;3.84;100.00;100683.78;5565966;32;33859;-73
2023/01/13 14:18:14;;;;;;;;;;;;;;;3.99;100.00;100678.28;5565964;32;34019;-73
2023/01/13 14:21:23;;;;;;;;;;;;;;;3.78;100.00;100683.41;5567624;32;34261;-74
2023/01/13 14:24:30;;;;;;;;;;;;;;;3.74;100.00;100682.81;5553425;32;32744;-73
2023/01/13 14:27:41;;;;;;;;;;;;;;;3.72;100.00;100676.00;5567013;32;34510;-73
2023/01/13 14:30:49;;;;;;;;;;;;;;;3.81;100.00;100675.31;5565736;32;34168;-73
2023/01/13 14:33:56;;;;;;;;;;;;;;;3.79;100.00;100666.69;5566158;32;32973;-73
2023/01/13 14:37:01;;;;;;;;;;;;;;;3.82;100.00;100674.34;5553118;32;34640;-73
2023/01/13 14:40:06;;;;;;;;;;;;;;;3.89;100.00;100668.50;5565036;32;34419;-73
2023/01/13 14:43:13;;;;;;;;;;;;;;;3.90;100.00;100677.22;5563059;32;33154;-73
2023/01/13 14:46:18;;;;;;;;;;;;;;;3.90;100.00;100667.56;5561666;32;33995;-73
2023/01/13 14:49:22;;;;;;;;;;;;;;;3.94;100.00;100670.78;5565882;32;35502;-73
2023/01/13 14:52:29;;;;;;;;;;;;;;;3.97;100.00;100683.66;5552101;32;34240;-73
2023/01/13 14:55:39;;;;;;;;;;;;;;;4.03;100.00;100680.56;5539982;32;34029;-72
2023/01/13 14:58:44;;;;;;;;;;;;;;;4.01;100.00;100689.53;5552539;32;35067;-74
2023/01/13 15:01:51;;;;;;;;;;;;;;;3.99;100.00;100684.37;5566467;32;34041;-72
2023/01/13 15:04:58;;;;;;;;;;;;;;;4.00;100.00;100682.59;5540069;32;34584;-73
2023/01/13 15:08:12;;;;;;;;;;;;;;;4.03;100.00;100669.22;5564832;32;33559;-73
2023/01/13 15:11:22;;;;;;;;;;;;;;;4.00;100.00;100670.31;5565011;32;34330;-73
2023/01/13 15:14:33;;;;;;;;;;;;;;;4.03;100.00;100671.84;5551814;32;33728;-74
2023/01/13 15:17:37;;;;;;;;;;;;;;;4.02;100.00;100665.75;5552352;32;34268;-73
2023/01/13 15:20:41;;;;;;;;;;;;;;;4.10;100.00;100667.81;5566277;32;34369;-73
2023/01/13 15:23:46;;;;;;;;;;;;;;;4.17;100.00;100664.56;5551588;32;33042;-74
2023/01/13 15:26:51;;;;;;;;;;;;;;;4.08;100.00;100673.16;5565192;32;34496;-73
2023/01/13 15:29:55;;;;;;;;;;;;;;;4.11;100.00;100669.47;5551562;32;35712;-73
2023/01/13 15:32:59;;;;;;;;;;;;;;;4.00;100.00;100672.94;5537461;32;35640;-73
2023/01/13 15:36:05;;;;;;;;;;;;;;;4.04;100.00;100677.00;5565277;32;32896;-73
2023/01/13 15:39:14;;;;;;;;;;;;;;;4.05;100.00;100672.56;5565111;32;33944;-74
2023/01/13 15:49:19;;;;;;;;;;;;;;;4.01;100.00;100681.66;5565567;32;34057;-73
2023/01/13 15:52:26;;;;;;;;;;;;;;;3.98;100.00;100674.84;5538636;32;33467;-74
2023/01/13 15:55:36;;;;;;;;;;;;;;;4.12;100.00;100676.38;5551051;32;34191;-73
2023/01/13 15:58:42;;;;;;;;;;;;;;;4.12;100.00;100690.34;5565495;32;34288;-73
2023/01/13 16:01:50;;;;;;;;;;;;;;;4.12;100.00;100689.50;5551022;32;34971;-73
2023/01/13 16:04:55;;;;;;;;;;;;;;;4.00;100.00;100688.69;5564893;32;33582;-73
2023/01/13 16:08:00;;;;;;;;;;;;;;;4.01;100.00;100689.53;5551104;32;34294;-72
2023/01/13 16:11:07;;;;;;;;;;;;;;;4.01;100.00;100698.25;5551571;32;34119;-73
2023/01/13 16:14:13;;;;;;;;;;;;;;;3.96;100.00;100687.25;5566574;32;34796;-73
2023/01/13 16:17:20;;;;;;;;;;;;;;;3.95;100.00;100685.56;5541540;32;34256;-72
2023/01/13 16:20:25;;;;;;;;;;;;;;;3.91;100.00;100689.41;5568400;32;34279;-73
2023/01/13 16:23:34;;;;;;;;;;;;;;;3.92;100.00;100677.94;5568415;32;34208;-72
2023/01/13 16:26:41;;;;;;;;;;;;;;;4.00;100.00;100683.44;5541142;32;34510;-73
2023/01/13 16:29:49;;;;;;;;;;;;;;;4.06;100.00;100688.22;5568129;32;34836;-73
2023/01/13 16:32:58;;;;;;;;;;;;;;;4.14;100.00;100685.81;5541241;32;35163;-73
2023/01/13 16:36:08;;;;;;;;;;;;;;;4.09;100.00;100692.38;5554504;32;33258;-73
2023/01/13 16:39:20;;;;;;;;;;;;;;;4.12;100.00;100689.50;5568383;32;34201;-74
2023/01/13 16:42:29;;;;;;;;;;;;;;;4.00;100.00;100683.44;5554932;32;34778;-74
2023/01/13 16:45:37;;;;;;;;;;;;;;;3.99;100.00;100681.75;5554074;32;33698;-74
2023/01/13 16:48:46;;;;;;;;;;;;;;;3.98;100.00;100672.22;5568218;32;33934;-73
2023/01/13 16:51:51;;;;;;;;;;;;;;;4.00;100.00;100672.94;5546557;32;32255;-73
2023/01/13 16:54:59;;;;;;;;;;;;;;;4.04;100.00;100670.91;5566587;32;34088;-72
2023/01/13 16:58:05;;;;;;;;;;;;;;;3.97;100.00;100660.03;5556998;32;34311;-73
2023/01/13 17:01:18;;;;;;;;;;;;;;;3.99;100.00;100665.16;5568089;32;34909;-73
2023/01/13 17:04:25;;;;;;;;;;;;;;;4.01;100.00;100666.75;5568126;32;34092;-74
2023/01/13 17:07:32;;;;;;;;;;;;;;;4.16;100.00;100675.22;5552658;32;32729;-74
2023/01/13 17:10:42;;;;;;;;;;;;;;;4.01;100.00;100684.28;5568027;32;34800;-74
2023/01/13 17:13:51;;;;;;;;;;;;;;;4.04;100.00;100691.91;5554424;32;34807;-74
2023/01/13 17:16:58;;;;;;;;;;;;;;;4.14;100.00;100698.13;5568187;32;33734;-74
2023/01/13 17:20:04;;;;;;;;;;;;;;;4.15;100.00;100692.75;5567948;32;34856;-74
2023/01/13 17:23:13;;;;;;;;;;;;;;;4.15;100.00;100676.16;5567675;32;34391;-73